»·PEaware :: N272RP KCLM-KBLI

N272RP :: KCLM-KBLI

FLIGHT INFORMATION

Flight Status: Arrived
Operator: Privately registered:
United States
More flights under this callsign
Pilot: Jim C. (903)
Aircraft: CESSNA 172 SKYHAWK
(C172)
More flights by this aircraft type
Origin: KCLM Fairchild Intl
United States
Destination: KBLI Bellingham Intl
United States
More flights between these airports :: More routes between these airports
Route: WATTR7 WATTR
File this flight plan on PilotEdge
Remarks:
Altitude:
(Current/Filed)
5,000ft
Speed:
(Current/Filed)
109kts
Departed: 04-Aug-19 03:37 PM
Arrived: 04-Aug-19 04:20 PM
Distance/Time
Traveled:
56nm/0:43
Distance/Time
To Go:
Arrived

Flight Plot

Page will automatically refresh every two minutes.

Flight plan parsing failed; only flown route is shown


Map Options




Map Legend


Flown Route
Filed Route
Departure Airport
Arrival Airport
Navaid (VOR, NDB)
Fix

Horizontal Profiles

Position Reports

Time Latitude Longitude Heading Altitude Ground
Speed
04-Aug-19 15:17 48.116083 -123.491689 16 295ft 0kts
04-Aug-19 15:18 48.116083 -123.491689 16 295ft 0kts
04-Aug-19 15:19 48.116083 -123.491689 16 295ft 0kts
04-Aug-19 15:20 48.116083 -123.491689 16 295ft 0kts
04-Aug-19 15:21 48.116083 -123.491689 16 295ft 0kts
04-Aug-19 15:23 48.116083 -123.491689 16 295ft 0kts
04-Aug-19 15:24 48.116083 -123.491689 16 295ft 0kts
04-Aug-19 15:25 48.116083 -123.491689 16 295ft 0kts
04-Aug-19 15:26 48.116083 -123.491689 16 295ft 0kts
04-Aug-19 15:27 48.116083 -123.491689 16 295ft 0kts
04-Aug-19 15:28 48.117044 -123.493043 283 295ft 10kts
04-Aug-19 15:29 48.117380 -123.496670 269 295ft 7kts
04-Aug-19 15:30 48.117932 -123.500087 285 295ft 12kts
04-Aug-19 15:31 48.118929 -123.505757 284 295ft 13kts
04-Aug-19 15:32 48.119547 -123.509295 284 295ft 7kts
04-Aug-19 15:33 48.120223 -123.511765 9 295ft 0kts
04-Aug-19 15:34 48.120223 -123.511765 9 295ft 0kts
04-Aug-19 15:35 48.120585 -123.511590 15 295ft 6kts
04-Aug-19 15:36 48.118473 -123.495734 98 644ft 73kts
04-Aug-19 15:37 48.124988 -123.468339 63 1658ft 69kts
04-Aug-19 15:38 48.133913 -123.440501 65 2500ft 82kts
04-Aug-19 15:39 48.143844 -123.405353 73 3220ft 98kts
04-Aug-19 15:40 48.145496 -123.368081 89 3854ft 101kts
04-Aug-19 15:41 48.145303 -123.342674 90 4279ft 100kts
04-Aug-19 15:42 48.144982 -123.318267 90 4690ft 99kts
04-Aug-19 15:43 48.144404 -123.277544 90 5389ft 96kts
04-Aug-19 15:45 48.143647 -123.230485 90 5462ft 125kts
04-Aug-19 15:46 48.142827 -123.177612 90 5461ft 127kts
04-Aug-19 15:47 48.141959 -123.125734 91 5226ft 105kts
04-Aug-19 15:48 48.141391 -123.093095 88 4823ft 58kts
04-Aug-19 15:49 48.138816 -123.069378 113 4872ft 69kts
04-Aug-19 15:50 48.137675 -123.038797 93 5313ft 91kts
04-Aug-19 15:51 48.136372 -122.991794 93 4989ft 121kts
04-Aug-19 15:52 48.135561 -122.943037 101 5004ft 122kts
04-Aug-19 15:53 48.156075 -122.908062 3 5010ft 124kts
04-Aug-19 15:54 48.190685 -122.901803 10 5010ft 126kts
04-Aug-19 15:55 48.224076 -122.884106 19 5012ft 128kts
04-Aug-19 15:56 48.256382 -122.864443 20 5012ft 128kts
04-Aug-19 15:57 48.289498 -122.844171 20 5013ft 128kts
04-Aug-19 15:58 48.322244 -122.822406 23 5012ft 128kts
04-Aug-19 15:59 48.353996 -122.802628 15 5010ft 127kts
04-Aug-19 16:00 48.386779 -122.785359 7 4887ft 122kts
04-Aug-19 16:01 48.417110 -122.776406 6 4376ft 105kts
04-Aug-19 16:02 48.445150 -122.768183 5 3875ft 100kts
04-Aug-19 16:03 48.472555 -122.762210 355 3377ft 98kts
04-Aug-19 16:04 48.499001 -122.757347 4 3025ft 83kts
04-Aug-19 16:04 48.516742 -122.752544 5 3044ft 98kts
04-Aug-19 16:05 48.548943 -122.744011 7 3026ft 123kts
04-Aug-19 16:07 48.571323 -122.715827 99 3023ft 116kts
04-Aug-19 16:07 48.569209 -122.675661 89 3024ft 113kts
04-Aug-19 16:08 48.569175 -122.628457 88 3025ft 112kts
04-Aug-19 16:10 48.569315 -122.573080 88 3019ft 113kts
04-Aug-19 16:10 48.574101 -122.534877 37 3001ft 113kts
04-Aug-19 16:11 48.604013 -122.534560 351 2398ft 110kts
04-Aug-19 16:13 48.638460 -122.535527 353 2205ft 100kts
04-Aug-19 16:13 48.660518 -122.535812 352 2206ft 91kts
04-Aug-19 16:14 48.685768 -122.536153 353 2075ft 91kts
04-Aug-19 16:15 48.711274 -122.536439 353 1617ft 92kts
04-Aug-19 16:16 48.736330 -122.536730 354 1132ft 94kts
04-Aug-19 16:17 48.760474 -122.537004 353 661ft 75kts
04-Aug-19 16:18 48.780217 -122.537249 353 283ft 63kts
04-Aug-19 16:19 48.789997 -122.537241 30 173ft 18kts
04-Aug-19 16:20 48.793959 -122.535424 36 173ft 15kts
04-Aug-19 16:21 48.793059 -122.532274 134 173ft 6kts
04-Aug-19 16:22 48.793264 -122.532471 316 173ft 0kts

Navigation Log

Ident Type
Flight plan parsing failed, navigation log unavailable